createdAt,value
2023-04-17T00:01:27.788Z,99.90
2023-04-17T00:03:57.735Z,99.90
2023-04-17T00:06:27.366Z,99.90
2023-04-17T00:08:55.704Z,99.90
2023-04-17T00:11:23.580Z,99.90
2023-04-17T00:13:52.844Z,99.90
2023-04-17T00:16:20.727Z,99.90
2023-04-17T00:18:48.692Z,99.90
2023-04-17T00:21:16.526Z,99.90
2023-04-17T00:23:45.842Z,99.90
2023-04-17T00:26:13.746Z,99.90
2023-04-17T00:28:41.611Z,99.90
2023-04-17T00:31:10.892Z,99.90
2023-04-17T00:33:38.765Z,99.90
2023-04-17T00:36:07.740Z,99.90
2023-04-17T00:38:35.618Z,99.90
2023-04-17T00:41:03.465Z,99.90
2023-04-17T00:43:31.426Z,99.90
2023-04-17T00:45:59.960Z,99.90
2023-04-17T00:48:29.488Z,99.90
2023-04-17T00:51:02.095Z,99.90
2023-04-17T00:53:31.612Z,99.90
2023-04-17T00:56:00.175Z,99.90
2023-04-17T00:58:29.278Z,99.90
2023-04-17T01:00:57.138Z,99.90
2023-04-17T01:03:25.239Z,99.90
2023-04-17T01:05:54.639Z,99.90
2023-04-17T01:08:23.741Z,99.80
2023-04-17T01:10:51.590Z,99.80
2023-04-17T01:13:19.521Z,99.70
2023-04-17T01:15:47.551Z,99.60
2023-04-17T01:18:16.477Z,99.50
2023-04-17T01:20:44.329Z,99.40
2023-04-17T01:23:13.791Z,99.40
2023-04-17T01:25:43.138Z,99.40
2023-04-17T01:28:11.125Z,99.40
2023-04-17T01:30:39.065Z,99.40
2023-04-17T01:33:07.182Z,99.50
2023-04-17T01:35:35.054Z,99.50
2023-04-17T01:38:02.927Z,99.50
2023-04-17T01:40:30.799Z,99.50
2023-04-17T01:43:00.023Z,99.50
2023-04-17T01:45:27.861Z,99.50
2023-04-17T01:47:55.779Z,99.40
2023-04-17T01:50:23.679Z,99.40
2023-04-17T01:52:51.567Z,99.40
2023-04-17T01:55:19.616Z,99.30
2023-04-17T01:57:47.528Z,99.20
2023-04-17T02:00:17.685Z,99.20
2023-04-17T02:02:45.880Z,99.10
2023-04-17T02:05:13.812Z,99.00
2023-04-17T02:07:41.658Z,99.00
2023-04-17T02:10:10.302Z,98.90
2023-04-17T02:12:38.167Z,99.00
2023-04-17T02:15:07.179Z,99.00
2023-04-17T02:17:36.396Z,98.90
2023-04-17T02:20:06.991Z,99.00
2023-04-17T02:22:34.825Z,98.80
2023-04-17T02:25:02.934Z,98.80
2023-04-17T02:27:31.092Z,98.80
2023-04-17T02:29:58.970Z,98.80
2023-04-17T02:32:27.346Z,98.40
2023-04-17T02:34:56.573Z,98.70
2023-04-17T02:37:24.448Z,98.60
2023-04-17T02:39:53.272Z,98.40
2023-04-17T02:42:21.123Z,98.10
2023-04-17T02:44:48.978Z,98.30
2023-04-17T02:47:16.861Z,98.30
2023-04-17T02:49:44.713Z,98.50
2023-04-17T02:52:13.913Z,98.50
2023-04-17T02:54:41.821Z,98.70
2023-04-17T02:57:09.664Z,98.70
2023-04-17T02:59:37.523Z,98.70
2023-04-17T03:02:06.056Z,98.60
2023-04-17T03:04:34.523Z,98.60
2023-04-17T03:07:02.395Z,98.70
2023-04-17T03:09:31.732Z,98.50
2023-04-17T03:11:59.688Z,98.00
2023-04-17T03:14:27.605Z,97.80
2023-04-17T03:16:56.892Z,98.00
2023-04-17T03:19:24.893Z,97.30
2023-04-17T03:21:52.724Z,96.90
2023-04-17T03:24:20.575Z,97.40
2023-04-17T03:26:49.973Z,97.30
2023-04-17T03:29:17.799Z,97.50
2023-04-17T03:31:45.839Z,97.20
2023-04-17T03:34:13.840Z,97.40
2023-04-17T03:36:41.682Z,97.10
2023-04-17T03:39:09.620Z,96.90
2023-04-17T03:41:38.622Z,97.10
2023-04-17T03:44:08.756Z,96.70
2023-04-17T03:46:37.144Z,96.80
2023-04-17T03:49:05.010Z,96.80
2023-04-17T03:51:32.936Z,96.60
2023-04-17T03:54:00.828Z,96.20
2023-04-17T03:56:28.620Z,96.30
2023-04-17T03:58:56.464Z,96.50
2023-04-17T04:01:28.370Z,96.80
2023-04-17T04:03:56.726Z,96.80
2023-04-17T04:06:24.662Z,96.90
2023-04-17T04:08:52.473Z,96.90
2023-04-17T04:11:20.296Z,96.90
2023-04-17T04:13:48.086Z,96.90
2023-04-17T04:16:16.069Z,96.90
2023-04-17T04:18:45.322Z,96.90
2023-04-17T04:21:13.155Z,97.10
2023-04-17T04:23:41.254Z,96.90
2023-04-17T04:26:09.228Z,96.90
2023-04-17T04:28:38.101Z,96.90
2023-04-17T04:31:06.905Z,97.00
2023-04-17T04:33:35.246Z,97.10
2023-04-17T04:36:04.546Z,97.20
2023-04-17T04:38:32.729Z,97.50
2023-04-17T04:41:05.897Z,97.50
2023-04-17T04:43:34.503Z,97.60
2023-04-17T04:46:02.366Z,97.70
2023-04-17T04:48:30.294Z,97.70
2023-04-17T04:50:58.235Z,97.80
2023-04-17T04:53:27.386Z,97.70
2023-04-17T04:55:55.215Z,97.70
2023-04-17T04:58:23.050Z,97.80
2023-04-17T05:00:51.091Z,98.00
2023-04-17T05:03:19.077Z,97.40
2023-04-17T05:05:47.088Z,97.20
2023-04-17T05:08:14.923Z,97.10
2023-04-17T05:10:45.987Z,97.10
2023-04-17T05:13:13.957Z,97.20
2023-04-17T05:15:42.411Z,97.40
2023-04-17T05:18:10.402Z,97.40
2023-04-17T05:20:38.688Z,97.60
2023-04-17T05:23:06.537Z,97.60
2023-04-17T05:25:34.416Z,97.60
2023-04-17T05:28:03.676Z,97.50
2023-04-17T05:30:31.550Z,97.80
2023-04-17T05:33:00.856Z,97.30
2023-04-17T05:35:28.782Z,97.20
2023-04-17T05:37:56.824Z,97.50
2023-04-17T05:40:24.904Z,97.50
2023-04-17T05:42:52.747Z,97.50
2023-04-17T05:45:24.212Z,97.40
2023-04-17T05:47:53.392Z,97.60
2023-04-17T05:50:21.381Z,97.50
2023-04-17T05:52:49.203Z,97.70
2023-04-17T05:55:17.025Z,97.10
2023-04-17T05:57:44.849Z,97.00
2023-04-17T06:00:13.841Z,97.20
2023-04-17T06:02:43.819Z,97.20
2023-04-17T06:05:12.158Z,97.00
2023-04-17T06:07:40.454Z,97.20
2023-04-17T06:10:09.721Z,96.70
2023-04-17T06:12:37.634Z,96.60
2023-04-17T06:15:07.412Z,96.90
2023-04-17T06:17:36.776Z,96.90
2023-04-17T06:20:09.902Z,96.90
2023-04-17T06:22:37.936Z,96.60
2023-04-17T06:25:06.843Z,96.60
2023-04-17T06:27:36.779Z,96.70
2023-04-17T06:30:06.380Z,95.80
2023-04-17T06:32:34.355Z,96.00
2023-04-17T06:35:02.221Z,96.00
2023-04-17T06:37:31.421Z,95.80
2023-04-17T06:39:59.267Z,95.00
2023-04-17T06:42:28.066Z,95.40
2023-04-17T06:44:56.239Z,95.50
2023-04-17T06:47:24.132Z,95.50
2023-04-17T06:49:52.172Z,94.50
2023-04-17T06:52:20.230Z,94.10
2023-04-17T06:54:49.384Z,94.30
2023-04-17T06:57:17.240Z,94.70
2023-04-17T06:59:45.062Z,94.50
2023-04-17T07:02:13.009Z,94.70
2023-04-17T07:04:41.179Z,93.70
2023-04-17T07:07:09.145Z,93.80
2023-04-17T07:09:36.965Z,93.80
2023-04-17T07:12:06.338Z,92.80
2023-04-17T07:14:35.489Z,93.60
2023-04-17T07:17:04.272Z,93.60
2023-04-17T07:19:32.096Z,93.50
2023-04-17T07:22:00.283Z,93.90
2023-04-17T07:24:28.170Z,93.40
2023-04-17T07:26:56.761Z,92.40
2023-04-17T07:29:25.995Z,92.70
2023-04-17T07:31:53.880Z,91.20
2023-04-17T07:34:21.857Z,90.80
2023-04-17T07:36:51.875Z,91.30
2023-04-17T07:39:19.975Z,90.70
2023-04-17T07:41:47.775Z,91.40
2023-04-17T07:44:16.082Z,90.40
2023-04-17T07:46:46.023Z,88.70
2023-04-17T07:49:14.155Z,86.90
2023-04-17T07:51:42.690Z,86.90
2023-04-17T07:54:10.700Z,85.50
2023-04-17T07:56:38.538Z,87.00
2023-04-17T07:59:06.405Z,86.80
2023-04-17T08:01:34.222Z,87.10
2023-04-17T08:04:03.818Z,87.80
2023-04-17T08:06:32.330Z,87.00
2023-04-17T08:09:02.171Z,89.80
2023-04-17T08:11:30.326Z,90.50
2023-04-17T08:13:58.144Z,88.30
2023-04-17T08:16:25.982Z,87.00
2023-04-17T08:18:53.806Z,89.10
2023-04-17T08:21:22.986Z,89.30
2023-04-17T08:23:50.993Z,84.10
2023-04-17T08:26:20.467Z,86.40
2023-04-17T08:28:48.328Z,85.60
2023-04-17T08:31:16.203Z,86.70
2023-04-17T08:33:44.043Z,83.50
2023-04-17T08:36:11.869Z,89.60
2023-04-17T08:38:42.084Z,90.10
2023-04-17T08:41:13.558Z,86.50
2023-04-17T08:43:42.346Z,86.20
2023-04-17T08:46:10.356Z,87.80
2023-04-17T08:48:38.261Z,85.90
2023-04-17T08:51:06.272Z,83.80
2023-04-17T08:53:34.115Z,85.00
2023-04-17T08:56:08.948Z,87.60
2023-04-17T08:58:37.573Z,87.90
2023-04-17T09:01:12.582Z,84.70
2023-04-17T09:03:44.442Z,82.90
2023-04-17T09:06:13.063Z,85.30
2023-04-17T09:08:55.469Z,82.00
2023-04-17T09:11:24.728Z,84.00
2023-04-17T09:13:52.618Z,78.10
2023-04-17T09:16:20.788Z,79.60
2023-04-17T09:18:49.433Z,76.60
2023-04-17T09:21:19.632Z,77.90
2023-04-17T09:23:49.581Z,81.90
2023-04-17T09:26:19.301Z,81.20
2023-04-17T09:29:07.808Z,77.30
2023-04-17T09:31:37.514Z,76.60
2023-04-17T09:34:07.520Z,76.00
2023-04-17T09:36:36.798Z,75.00
2023-04-17T09:39:05.973Z,77.60
2023-04-17T09:41:36.345Z,77.40
2023-04-17T09:44:06.444Z,79.70
2023-04-17T09:46:39.220Z,79.20
2023-04-17T09:49:11.714Z,77.70
2023-04-17T09:51:39.691Z,79.50
2023-04-17T09:54:10.078Z,81.20
2023-04-17T09:56:38.803Z,80.50
2023-04-17T09:59:09.831Z,81.20
2023-04-17T10:01:39.963Z,78.50
2023-04-17T10:04:08.260Z,77.00
2023-04-17T10:06:37.590Z,77.70
2023-04-17T10:09:05.882Z,79.60
2023-04-17T10:11:37.559Z,77.60
2023-04-17T10:14:11.818Z,73.80
2023-04-17T10:16:42.617Z,72.50
2023-04-17T10:19:30.960Z,72.10
2023-04-17T10:22:30.974Z,75.40
2023-04-17T10:25:19.010Z,72.00
2023-04-17T10:27:53.424Z,73.10
2023-04-17T10:30:24.008Z,73.80
2023-04-17T10:33:24.550Z,72.80
2023-04-17T10:35:53.526Z,74.20
2023-04-17T10:38:36.308Z,72.90
2023-04-17T10:41:05.610Z,72.20
2023-04-17T10:43:33.939Z,72.70
2023-04-17T10:46:09.756Z,72.40
2023-04-17T10:48:41.621Z,70.60
2023-04-17T10:51:42.897Z,70.50
2023-04-17T10:54:15.657Z,72.40
2023-04-17T10:56:46.160Z,69.60
2023-04-17T10:59:15.760Z,70.20
2023-04-17T11:02:01.219Z,68.70
2023-04-17T11:04:31.033Z,69.70
2023-04-17T11:06:59.464Z,67.30
2023-04-17T11:09:29.357Z,68.00
2023-04-17T11:12:01.367Z,67.30
2023-04-17T11:14:30.252Z,68.90
2023-04-17T11:16:59.745Z,67.60
2023-04-17T11:19:27.720Z,70.60
2023-04-17T11:21:58.662Z,71.70
2023-04-17T11:24:28.300Z,70.20
2023-04-17T11:26:57.676Z,70.70
2023-04-17T11:29:26.357Z,69.20
2023-04-17T11:31:55.817Z,71.70
2023-04-17T11:34:27.121Z,72.00
2023-04-17T11:36:56.739Z,77.20
2023-04-17T11:39:25.812Z,73.50
2023-04-17T11:41:54.044Z,72.30
2023-04-17T11:44:22.179Z,73.50
2023-04-17T11:46:51.440Z,71.30
2023-04-17T11:49:27.432Z,70.60
2023-04-17T11:51:55.388Z,69.50
2023-04-17T11:54:27.144Z,70.40
2023-04-17T11:57:02.406Z,72.80
2023-04-17T11:59:34.411Z,69.70
2023-04-17T12:02:03.222Z,70.70
2023-04-17T12:04:34.789Z,72.00
2023-04-17T12:07:03.788Z,69.50
2023-04-17T12:09:32.477Z,73.60
2023-04-17T12:12:01.273Z,70.70
2023-04-17T12:14:29.171Z,70.10
2023-04-17T12:16:56.995Z,71.70
2023-04-17T12:19:26.663Z,70.80
2023-04-17T12:21:56.590Z,74.40
2023-04-17T12:24:25.075Z,71.60
2023-04-17T12:26:53.443Z,69.60
2023-04-17T12:29:32.258Z,68.80
2023-04-17T12:32:04.933Z,70.00
2023-04-17T12:34:32.905Z,70.00
2023-04-17T12:37:02.332Z,70.00
2023-04-17T12:39:30.211Z,69.80
2023-04-17T12:41:58.009Z,69.40
2023-04-17T12:44:25.840Z,68.60
2023-04-17T12:46:53.704Z,70.10
2023-04-17T12:49:23.437Z,69.40
2023-04-17T12:51:51.507Z,67.30
2023-04-17T12:54:21.024Z,67.60
2023-04-17T12:56:48.878Z,65.80
2023-04-17T12:59:17.370Z,64.40
2023-04-17T13:01:45.216Z,64.60
2023-04-17T13:04:13.452Z,62.60
2023-04-17T13:06:41.649Z,62.60
2023-04-17T13:09:10.253Z,60.90
2023-04-17T13:11:39.542Z,64.60
2023-04-17T13:14:07.415Z,64.50
2023-04-17T13:16:35.358Z,63.60
2023-04-17T13:19:03.247Z,63.10
2023-04-17T13:21:31.090Z,64.40
2023-04-17T13:23:58.879Z,61.80
2023-04-17T13:26:26.809Z,60.00
2023-04-17T13:28:55.955Z,58.90
2023-04-17T13:31:24.576Z,60.40
2023-04-17T13:33:52.540Z,58.30
2023-04-17T13:36:20.448Z,59.80
2023-04-17T13:38:48.291Z,59.80
2023-04-17T13:41:16.113Z,60.30
2023-04-17T13:43:44.421Z,58.70
2023-04-17T13:46:16.114Z,56.30
2023-04-17T13:48:44.329Z,56.10
2023-04-17T13:51:12.197Z,53.50
2023-04-17T13:53:40.075Z,53.20
2023-04-17T13:56:08.088Z,54.10
2023-04-17T13:58:35.972Z,52.20
2023-04-17T14:01:03.781Z,49.50
2023-04-17T14:03:33.050Z,52.20
2023-04-17T14:06:01.043Z,52.20
2023-04-17T14:08:28.869Z,52.00
2023-04-17T14:10:56.678Z,52.40
2023-04-17T14:13:24.539Z,50.20
2023-04-17T14:15:53.734Z,50.50
2023-04-17T14:18:22.014Z,42.50
2023-04-17T14:20:52.508Z,47.00
2023-04-17T14:23:20.558Z,46.90
2023-04-17T14:25:48.385Z,48.00
2023-04-17T14:28:16.484Z,46.80
2023-04-17T14:30:44.288Z,43.60
2023-04-17T14:33:12.096Z,46.40
2023-04-17T14:35:40.536Z,43.20
2023-04-17T14:38:09.805Z,47.70
2023-04-17T14:40:37.803Z,50.10
2023-04-17T14:43:05.659Z,44.50
2023-04-17T14:45:34.504Z,45.50
2023-04-17T14:48:02.480Z,42.00
2023-04-17T14:50:30.503Z,41.70
2023-04-17T14:52:58.372Z,39.40
2023-04-17T14:55:27.670Z,39.40
2023-04-17T14:57:55.966Z,40.70
2023-04-17T15:00:24.019Z,39.30
2023-04-17T15:02:52.011Z,37.20
2023-04-17T15:05:20.826Z,38.00
2023-04-17T15:07:48.846Z,38.00
2023-04-17T15:10:17.449Z,40.20
2023-04-17T15:12:46.780Z,41.50
2023-04-17T15:15:14.702Z,38.10
2023-04-17T15:17:42.633Z,38.60
2023-04-17T15:20:10.923Z,38.40
2023-04-17T15:22:38.758Z,36.90
2023-04-17T15:25:07.315Z,38.40
2023-04-17T15:27:35.348Z,41.10
2023-04-17T15:30:12.475Z,39.70
2023-04-17T15:32:41.620Z,41.90
2023-04-17T15:35:09.620Z,38.80
2023-04-17T15:37:38.616Z,40.00
2023-04-17T15:40:07.856Z,39.80
2023-04-17T15:42:36.668Z,40.40
2023-04-17T15:45:07.134Z,39.60
2023-04-17T15:47:35.031Z,41.00
2023-04-17T15:50:02.901Z,38.90
2023-04-17T15:52:30.780Z,41.90
2023-04-17T15:54:58.599Z,39.50
2023-04-17T15:57:26.456Z,40.80
2023-04-17T15:59:54.254Z,41.60
2023-04-17T16:02:23.633Z,42.50
2023-04-17T16:04:51.582Z,41.20
2023-04-17T16:07:19.996Z,40.90
2023-04-17T16:09:48.018Z,40.20
2023-04-17T16:12:15.813Z,38.70
2023-04-17T16:14:43.761Z,41.20
2023-04-17T16:17:11.618Z,40.80
2023-04-17T16:19:40.777Z,42.80
2023-04-17T16:22:08.599Z,41.10
2023-04-17T16:24:36.422Z,41.60
2023-04-17T16:27:04.332Z,42.20
2023-04-17T16:29:32.160Z,41.50
2023-04-17T16:32:00.073Z,41.20
2023-04-17T16:34:28.099Z,42.90
2023-04-17T16:36:57.239Z,40.80
2023-04-17T16:39:25.282Z,39.30
2023-04-17T16:41:53.126Z,42.50
2023-04-17T16:44:21.100Z,41.30
2023-04-17T16:49:19.680Z,42.00
2023-04-17T16:51:47.539Z,43.40
2023-04-17T16:54:18.678Z,43.90
2023-04-17T16:56:46.481Z,44.00
2023-04-17T16:59:14.567Z,43.60
2023-04-17T17:01:42.620Z,43.40
2023-04-17T17:04:10.529Z,44.50
2023-04-17T17:06:38.409Z,44.20
2023-04-17T17:09:06.636Z,43.10
2023-04-17T17:11:35.776Z,43.10
2023-04-17T17:14:03.611Z,43.60
2023-04-17T17:16:31.458Z,45.30
2023-04-17T17:19:00.151Z,45.30
2023-04-17T17:21:28.069Z,46.30
2023-04-17T17:23:56.029Z,47.30
2023-04-17T17:26:23.846Z,46.00
2023-04-17T17:28:53.173Z,45.70
2023-04-17T17:31:21.350Z,46.20
2023-04-17T17:33:50.129Z,47.50
2023-04-17T17:36:18.366Z,46.20
2023-04-17T17:38:46.307Z,47.90
2023-04-17T17:41:14.167Z,47.80
2023-04-17T17:43:42.111Z,45.50
2023-04-17T17:46:11.291Z,47.20
2023-04-17T17:48:39.128Z,47.60
2023-04-17T17:51:06.958Z,47.70
2023-04-17T17:53:34.838Z,47.70
2023-04-17T17:56:02.715Z,46.70
2023-04-17T17:58:30.590Z,48.10
2023-04-17T18:00:58.394Z,48.00
2023-04-17T18:03:27.756Z,47.80
2023-04-17T18:05:55.674Z,47.70
2023-04-17T18:08:23.492Z,48.30
2023-04-17T18:10:51.347Z,48.20
2023-04-17T18:13:19.182Z,49.60
2023-04-17T18:15:47.023Z,50.50
2023-04-17T18:18:14.880Z,50.50
2023-04-17T18:20:44.038Z,51.70
2023-04-17T18:23:11.826Z,49.60
2023-04-17T18:25:40.580Z,51.00
2023-04-17T18:28:08.531Z,53.10
2023-04-17T18:30:36.484Z,52.40
2023-04-17T18:33:04.415Z,52.40
2023-04-17T18:35:32.252Z,53.60
2023-04-17T18:38:01.459Z,54.00
2023-04-17T18:40:30.547Z,54.40
2023-04-17T18:42:58.347Z,53.60
2023-04-17T18:45:26.239Z,53.80
2023-04-17T18:47:54.109Z,52.80
2023-04-17T18:50:22.092Z,53.30
2023-04-17T18:52:51.216Z,54.30
2023-04-17T18:55:20.668Z,54.10
2023-04-17T18:57:48.474Z,55.60
2023-04-17T19:00:16.755Z,55.90
2023-04-17T19:02:44.610Z,57.70
2023-04-17T19:05:12.487Z,58.10
2023-04-17T19:07:40.506Z,58.60
2023-04-17T19:10:09.846Z,57.30
2023-04-17T19:12:39.240Z,58.70
2023-04-17T19:15:08.542Z,59.30
2023-04-17T19:17:36.374Z,59.70
2023-04-17T19:20:04.592Z,59.30
2023-04-17T19:22:32.401Z,62.10
2023-04-17T19:25:00.254Z,63.40
2023-04-17T19:27:28.174Z,63.30
2023-04-17T19:29:57.904Z,64.90
2023-04-17T19:32:25.884Z,67.30
2023-04-17T19:34:53.702Z,69.00
2023-04-17T19:37:21.580Z,65.50
2023-04-17T19:39:50.197Z,65.90
2023-04-17T19:42:19.382Z,65.90
2023-04-17T19:44:47.293Z,68.30
2023-04-17T19:47:16.462Z,69.20
2023-04-17T19:49:44.786Z,70.60
2023-04-17T19:52:12.705Z,72.30
2023-04-17T19:54:42.721Z,73.50
2023-04-17T19:57:10.518Z,74.80
2023-04-17T19:59:38.414Z,76.90
2023-04-17T20:02:06.306Z,78.00
2023-04-17T20:04:35.828Z,78.80
2023-04-17T20:07:03.939Z,80.10
2023-04-17T20:09:32.353Z,82.30
2023-04-17T20:12:00.186Z,82.30
2023-04-17T20:14:28.021Z,83.10
2023-04-17T20:16:56.159Z,83.10
2023-04-17T20:19:24.258Z,83.30
2023-04-17T20:21:53.434Z,83.40
2023-04-17T20:24:21.280Z,83.00
2023-04-17T20:26:49.071Z,83.90
2023-04-17T20:29:16.880Z,85.50
2023-04-17T20:31:44.822Z,85.50
2023-04-17T20:34:12.679Z,85.20
2023-04-17T20:36:40.619Z,84.10
2023-04-17T20:39:11.030Z,84.20
2023-04-17T20:41:39.693Z,84.00
2023-04-17T20:44:07.703Z,84.20
2023-04-17T20:46:35.696Z,84.40
2023-04-17T20:49:03.590Z,84.20
2023-04-17T20:51:31.903Z,84.80
2023-04-17T20:53:59.696Z,84.80
2023-04-17T20:56:28.898Z,83.50
2023-04-17T20:58:56.710Z,83.90
2023-04-17T21:01:24.561Z,84.50
2023-04-17T21:03:52.733Z,84.80
2023-04-17T21:06:21.062Z,85.60
2023-04-17T21:08:48.866Z,86.40
2023-04-17T21:11:16.920Z,87.00
2023-04-17T21:13:46.048Z,87.40
2023-04-17T21:16:14.285Z,87.10
2023-04-17T21:18:42.138Z,87.30
2023-04-17T21:21:09.983Z,87.70
2023-04-17T21:23:37.786Z,87.90
2023-04-17T21:26:05.699Z,88.10
2023-04-17T21:28:33.533Z,88.60
2023-04-17T21:31:02.692Z,88.80
2023-04-17T21:33:30.512Z,88.10
2023-04-17T21:35:58.359Z,88.40
2023-04-17T21:38:26.478Z,88.30
2023-04-17T21:40:54.286Z,88.40
2023-04-17T21:43:22.098Z,87.00
2023-04-17T21:45:50.246Z,88.20
2023-04-17T21:48:19.539Z,89.60
2023-04-17T21:50:47.367Z,89.60
2023-04-17T21:53:15.207Z,90.20
2023-04-17T21:55:43.023Z,89.10
2023-04-17T21:58:10.893Z,88.70
2023-04-17T22:00:47.625Z,89.40
2023-04-17T22:03:15.499Z,88.40
2023-04-17T22:05:44.950Z,89.20
2023-04-17T22:08:12.760Z,90.10
2023-04-17T22:10:40.583Z,90.60
2023-04-17T22:13:08.372Z,90.70
2023-04-17T22:15:36.247Z,90.80
2023-04-17T22:18:04.209Z,91.10
2023-04-17T22:20:32.285Z,91.20
2023-04-17T22:23:01.398Z,91.50
2023-04-17T22:25:29.221Z,91.90
2023-04-17T22:27:57.013Z,92.00
2023-04-17T22:30:25.176Z,91.80
2023-04-17T22:32:53.015Z,92.20
2023-04-17T22:35:20.864Z,92.70
2023-04-17T22:37:48.652Z,92.90
2023-04-17T22:40:17.964Z,92.90
2023-04-17T22:42:45.804Z,92.30
2023-04-17T22:45:13.607Z,93.30
2023-04-17T22:47:41.641Z,93.40
2023-04-17T22:50:10.913Z,93.70
2023-04-17T22:52:38.776Z,93.80
2023-04-17T22:55:07.341Z,93.60
2023-04-17T22:57:36.565Z,93.40
2023-04-17T23:00:04.846Z,93.70
2023-04-17T23:02:32.789Z,93.80
2023-04-17T23:05:00.670Z,93.10
2023-04-17T23:07:28.692Z,92.80
2023-04-17T23:09:56.482Z,93.60
2023-04-17T23:12:24.289Z,93.70
2023-04-17T23:14:53.477Z,93.90
2023-04-17T23:17:21.290Z,94.20
2023-04-17T23:19:49.099Z,94.40
2023-04-17T23:22:16.932Z,94.60
2023-04-17T23:24:44.847Z,94.70
2023-04-17T23:27:12.628Z,94.70
2023-04-17T23:29:40.450Z,94.50
2023-04-17T23:32:09.856Z,94.60
2023-04-17T23:34:37.921Z,94.40
2023-04-17T23:37:05.946Z,94.20
2023-04-17T23:39:33.766Z,94.30
2023-04-17T23:42:06.924Z,94.40
2023-04-17T23:44:34.858Z,94.80
2023-04-17T23:47:02.989Z,94.90
2023-04-17T23:49:32.250Z,94.80
2023-04-17T23:52:00.049Z,95.10
2023-04-17T23:54:27.853Z,94.30
2023-04-17T23:56:55.712Z,95.00
2023-04-17T23:59:23.533Z,95.60
